sensor_id;sensor_type;location;lat;lon;timestamp;P1;durP1;ratioP1;P2;durP2;ratioP2
21905;SDS011;11117;48.644;9.006;2022-12-20T00:01:15;16.17;;;9.00;;
21905;SDS011;11117;48.644;9.006;2022-12-20T00:03:42;18.67;;;9.73;;
21905;SDS011;11117;48.644;9.006;2022-12-20T00:06:09;16.80;;;9.53;;
21905;SDS011;11117;48.644;9.006;2022-12-20T00:08:36;16.60;;;9.37;;
21905;SDS011;11117;48.644;9.006;2022-12-20T00:11:03;16.20;;;9.37;;
21905;SDS011;11117;48.644;9.006;2022-12-20T00:13:30;18.67;;;8.83;;
21905;SDS011;11117;48.644;9.006;2022-12-20T00:18:33;18.50;;;9.10;;
21905;SDS011;11117;48.644;9.006;2022-12-20T00:21:00;17.93;;;9.23;;
21905;SDS011;11117;48.644;9.006;2022-12-20T00:23:26;17.60;;;9.10;;
21905;SDS011;11117;48.644;9.006;2022-12-20T00:25:52;16.27;;;8.53;;
21905;SDS011;11117;48.644;9.006;2022-12-20T00:28:18;17.40;;;9.17;;
21905;SDS011;11117;48.644;9.006;2022-12-20T00:30:43;15.73;;;8.63;;
21905;SDS011;11117;48.644;9.006;2022-12-20T00:33:09;17.20;;;9.23;;
21905;SDS011;11117;48.644;9.006;2022-12-20T00:35:35;15.53;;;9.20;;
21905;SDS011;11117;48.644;9.006;2022-12-20T00:38:05;17.97;;;8.90;;
21905;SDS011;11117;48.644;9.006;2022-12-20T00:40:31;17.00;;;9.27;;
21905;SDS011;11117;48.644;9.006;2022-12-20T00:42:56;20.03;;;10.03;;
21905;SDS011;11117;48.644;9.006;2022-12-20T00:45:22;18.33;;;9.93;;
21905;SDS011;11117;48.644;9.006;2022-12-20T00:47:48;15.83;;;9.33;;
21905;SDS011;11117;48.644;9.006;2022-12-20T00:50:14;15.00;;;9.10;;
21905;SDS011;11117;48.644;9.006;2022-12-20T00:52:39;13.63;;;8.47;;
21905;SDS011;11117;48.644;9.006;2022-12-20T00:55:05;14.90;;;8.47;;
21905;SDS011;11117;48.644;9.006;2022-12-20T00:57:31;14.57;;;8.20;;
21905;SDS011;11117;48.644;9.006;2022-12-20T00:59:56;15.00;;;8.50;;
21905;SDS011;11117;48.644;9.006;2022-12-20T01:02:22;16.17;;;7.87;;
21905;SDS011;11117;48.644;9.006;2022-12-20T01:04:48;13.53;;;7.90;;
21905;SDS011;11117;48.644;9.006;2022-12-20T01:07:13;14.40;;;7.73;;
21905;SDS011;11117;48.644;9.006;2022-12-20T01:09:39;16.17;;;8.80;;
21905;SDS011;11117;48.644;9.006;2022-12-20T01:12:06;14.80;;;8.20;;
21905;SDS011;11117;48.644;9.006;2022-12-20T01:14:31;15.53;;;8.57;;
21905;SDS011;11117;48.644;9.006;2022-12-20T01:16:57;14.50;;;8.50;;
21905;SDS011;11117;48.644;9.006;2022-12-20T01:19:23;13.27;;;8.17;;
21905;SDS011;11117;48.644;9.006;2022-12-20T01:21:48;15.60;;;8.67;;
21905;SDS011;11117;48.644;9.006;2022-12-20T01:24:15;14.87;;;8.53;;
21905;SDS011;11117;48.644;9.006;2022-12-20T01:26:42;15.27;;;8.60;;
21905;SDS011;11117;48.644;9.006;2022-12-20T01:29:12;14.30;;;8.03;;
21905;SDS011;11117;48.644;9.006;2022-12-20T01:31:38;14.37;;;8.70;;
21905;SDS011;11117;48.644;9.006;2022-12-20T01:34:04;16.83;;;8.80;;
21905;SDS011;11117;48.644;9.006;2022-12-20T01:36:33;14.67;;;8.93;;
21905;SDS011;11117;48.644;9.006;2022-12-20T01:39:00;14.53;;;8.77;;
21905;SDS011;11117;48.644;9.006;2022-12-20T01:41:35;18.70;;;8.77;;
21905;SDS011;11117;48.644;9.006;2022-12-20T01:44:03;16.17;;;9.10;;
21905;SDS011;11117;48.644;9.006;2022-12-20T01:46:50;17.20;;;9.47;;
21905;SDS011;11117;48.644;9.006;2022-12-20T01:51:48;15.27;;;8.90;;
21905;SDS011;11117;48.644;9.006;2022-12-20T01:54:33;15.30;;;8.77;;
21905;SDS011;11117;48.644;9.006;2022-12-20T01:57:01;14.27;;;8.60;;
21905;SDS011;11117;48.644;9.006;2022-12-20T01:59:30;15.63;;;8.57;;
21905;SDS011;11117;48.644;9.006;2022-12-20T02:02:02;16.40;;;8.60;;
21905;SDS011;11117;48.644;9.006;2022-12-20T02:04:32;12.90;;;7.83;;
21905;SDS011;11117;48.644;9.006;2022-12-20T02:06:58;18.60;;;8.23;;
21905;SDS011;11117;48.644;9.006;2022-12-20T02:09:24;12.27;;;8.23;;
21905;SDS011;11117;48.644;9.006;2022-12-20T02:11:55;16.33;;;9.10;;
21905;SDS011;11117;48.644;9.006;2022-12-20T02:29:01;13.53;;;8.20;;
21905;SDS011;11117;48.644;9.006;2022-12-20T02:34:18;16.40;;;8.63;;
21905;SDS011;11117;48.644;9.006;2022-12-20T02:36:47;15.07;;;8.90;;
21905;SDS011;11117;48.644;9.006;2022-12-20T02:39:12;14.10;;;8.87;;
21905;SDS011;11117;48.644;9.006;2022-12-20T02:41:50;13.43;;;8.33;;
21905;SDS011;11117;48.644;9.006;2022-12-20T02:44:19;14.07;;;8.40;;
21905;SDS011;11117;48.644;9.006;2022-12-20T02:46:48;14.40;;;8.97;;
21905;SDS011;11117;48.644;9.006;2022-12-20T02:49:16;15.80;;;8.37;;
21905;SDS011;11117;48.644;9.006;2022-12-20T02:51:44;14.87;;;8.80;;
21905;SDS011;11117;48.644;9.006;2022-12-20T02:54:12;15.80;;;8.20;;
21905;SDS011;11117;48.644;9.006;2022-12-20T02:56:42;16.37;;;8.63;;
21905;SDS011;11117;48.644;9.006;2022-12-20T02:59:25;12.80;;;7.67;;
21905;SDS011;11117;48.644;9.006;2022-12-20T03:01:54;13.87;;;8.13;;
21905;SDS011;11117;48.644;9.006;2022-12-20T03:04:25;12.73;;;7.33;;
21905;SDS011;11117;48.644;9.006;2022-12-20T03:06:55;13.17;;;7.43;;
21905;SDS011;11117;48.644;9.006;2022-12-20T03:09:22;13.63;;;7.10;;
21905;SDS011;11117;48.644;9.006;2022-12-20T03:11:48;9.93;;;6.20;;
21905;SDS011;11117;48.644;9.006;2022-12-20T03:14:14;11.60;;;6.90;;
21905;SDS011;11117;48.644;9.006;2022-12-20T03:16:39;11.50;;;7.07;;
21905;SDS011;11117;48.644;9.006;2022-12-20T03:19:05;11.97;;;6.47;;
21905;SDS011;11117;48.644;9.006;2022-12-20T03:21:31;12.23;;;6.70;;
21905;SDS011;11117;48.644;9.006;2022-12-20T03:23:56;11.33;;;6.40;;
21905;SDS011;11117;48.644;9.006;2022-12-20T03:26:22;11.60;;;6.57;;
21905;SDS011;11117;48.644;9.006;2022-12-20T03:28:47;14.60;;;6.93;;
21905;SDS011;11117;48.644;9.006;2022-12-20T03:31:13;12.53;;;7.10;;
21905;SDS011;11117;48.644;9.006;2022-12-20T03:33:39;14.20;;;6.47;;
21905;SDS011;11117;48.644;9.006;2022-12-20T03:36:04;12.97;;;6.93;;
21905;SDS011;11117;48.644;9.006;2022-12-20T03:38:30;12.87;;;7.20;;
21905;SDS011;11117;48.644;9.006;2022-12-20T03:40:55;12.13;;;7.37;;
21905;SDS011;11117;48.644;9.006;2022-12-20T03:43:21;13.77;;;6.57;;
21905;SDS011;11117;48.644;9.006;2022-12-20T03:45:49;10.47;;;6.37;;
21905;SDS011;11117;48.644;9.006;2022-12-20T03:48:15;11.47;;;6.60;;
21905;SDS011;11117;48.644;9.006;2022-12-20T03:50:42;10.67;;;6.80;;
21905;SDS011;11117;48.644;9.006;2022-12-20T03:53:07;13.03;;;6.50;;
21905;SDS011;11117;48.644;9.006;2022-12-20T03:55:36;12.73;;;7.00;;
21905;SDS011;11117;48.644;9.006;2022-12-20T03:58:01;12.07;;;7.00;;
21905;SDS011;11117;48.644;9.006;2022-12-20T04:00:27;11.40;;;6.70;;
21905;SDS011;11117;48.644;9.006;2022-12-20T04:02:52;10.33;;;6.67;;
21905;SDS011;11117;48.644;9.006;2022-12-20T04:05:21;13.87;;;6.70;;
21905;SDS011;11117;48.644;9.006;2022-12-20T04:07:47;12.00;;;6.73;;
21905;SDS011;11117;48.644;9.006;2022-12-20T04:10:12;11.33;;;6.77;;
21905;SDS011;11117;48.644;9.006;2022-12-20T04:12:38;12.20;;;6.57;;
21905;SDS011;11117;48.644;9.006;2022-12-20T04:15:04;12.33;;;6.67;;
21905;SDS011;11117;48.644;9.006;2022-12-20T04:17:29;18.37;;;6.73;;
21905;SDS011;11117;48.644;9.006;2022-12-20T04:19:55;13.87;;;6.97;;
21905;SDS011;11117;48.644;9.006;2022-12-20T04:22:21;11.77;;;6.80;;
21905;SDS011;11117;48.644;9.006;2022-12-20T04:24:46;13.20;;;7.33;;
21905;SDS011;11117;48.644;9.006;2022-12-20T04:27:12;13.40;;;7.50;;
21905;SDS011;11117;48.644;9.006;2022-12-20T04:29:37;18.10;;;9.57;;
21905;SDS011;11117;48.644;9.006;2022-12-20T04:32:03;14.37;;;8.77;;
21905;SDS011;11117;48.644;9.006;2022-12-20T04:34:29;15.37;;;8.90;;
21905;SDS011;11117;48.644;9.006;2022-12-20T04:36:57;14.87;;;9.00;;
21905;SDS011;11117;48.644;9.006;2022-12-20T04:39:23;14.43;;;9.20;;
21905;SDS011;11117;48.644;9.006;2022-12-20T04:41:50;14.80;;;8.23;;
21905;SDS011;11117;48.644;9.006;2022-12-20T04:44:15;13.70;;;7.83;;
21905;SDS011;11117;48.644;9.006;2022-12-20T04:46:42;12.30;;;7.13;;
21905;SDS011;11117;48.644;9.006;2022-12-20T04:49:08;14.13;;;7.53;;
21905;SDS011;11117;48.644;9.006;2022-12-20T04:51:34;15.67;;;8.10;;
21905;SDS011;11117;48.644;9.006;2022-12-20T04:53:59;13.13;;;7.40;;
21905;SDS011;11117;48.644;9.006;2022-12-20T04:56:26;14.43;;;7.97;;
21905;SDS011;11117;48.644;9.006;2022-12-20T04:58:53;14.20;;;8.33;;
21905;SDS011;11117;48.644;9.006;2022-12-20T05:01:20;15.43;;;7.87;;
21905;SDS011;11117;48.644;9.006;2022-12-20T05:03:46;14.50;;;7.80;;
21905;SDS011;11117;48.644;9.006;2022-12-20T05:06:12;12.13;;;7.83;;
21905;SDS011;11117;48.644;9.006;2022-12-20T05:08:38;14.40;;;8.13;;
21905;SDS011;11117;48.644;9.006;2022-12-20T05:11:03;12.37;;;7.67;;
21905;SDS011;11117;48.644;9.006;2022-12-20T05:13:29;12.73;;;7.60;;
21905;SDS011;11117;48.644;9.006;2022-12-20T05:15:55;12.93;;;7.37;;
21905;SDS011;11117;48.644;9.006;2022-12-20T05:18:21;15.27;;;7.80;;
21905;SDS011;11117;48.644;9.006;2022-12-20T05:20:47;11.83;;;7.13;;
21905;SDS011;11117;48.644;9.006;2022-12-20T05:23:13;11.63;;;6.63;;
21905;SDS011;11117;48.644;9.006;2022-12-20T05:25:43;12.53;;;7.67;;
21905;SDS011;11117;48.644;9.006;2022-12-20T05:28:12;11.60;;;7.47;;
21905;SDS011;11117;48.644;9.006;2022-12-20T05:30:40;14.23;;;7.47;;
21905;SDS011;11117;48.644;9.006;2022-12-20T05:33:06;13.97;;;7.50;;
21905;SDS011;11117;48.644;9.006;2022-12-20T05:35:31;13.03;;;8.10;;
21905;SDS011;11117;48.644;9.006;2022-12-20T05:37:57;11.40;;;7.37;;
21905;SDS011;11117;48.644;9.006;2022-12-20T05:40:22;11.23;;;7.00;;
21905;SDS011;11117;48.644;9.006;2022-12-20T05:42:48;13.80;;;7.60;;
21905;SDS011;11117;48.644;9.006;2022-12-20T05:45:13;13.10;;;7.40;;
21905;SDS011;11117;48.644;9.006;2022-12-20T05:47:39;11.60;;;6.77;;
21905;SDS011;11117;48.644;9.006;2022-12-20T05:50:05;13.63;;;7.23;;
21905;SDS011;11117;48.644;9.006;2022-12-20T05:52:31;11.17;;;6.70;;
21905;SDS011;11117;48.644;9.006;2022-12-20T05:54:56;12.47;;;7.00;;
21905;SDS011;11117;48.644;9.006;2022-12-20T05:57:22;11.83;;;7.07;;
21905;SDS011;11117;48.644;9.006;2022-12-20T05:59:47;13.20;;;7.37;;
21905;SDS011;11117;48.644;9.006;2022-12-20T06:02:13;10.77;;;6.50;;
21905;SDS011;11117;48.644;9.006;2022-12-20T06:04:39;12.27;;;6.90;;
21905;SDS011;11117;48.644;9.006;2022-12-20T06:07:04;9.93;;;6.20;;
21905;SDS011;11117;48.644;9.006;2022-12-20T06:09:30;10.10;;;6.40;;
21905;SDS011;11117;48.644;9.006;2022-12-20T06:11:57;10.23;;;6.13;;
21905;SDS011;11117;48.644;9.006;2022-12-20T06:14:23;10.07;;;6.10;;
21905;SDS011;11117;48.644;9.006;2022-12-20T06:16:48;11.03;;;5.77;;
21905;SDS011;11117;48.644;9.006;2022-12-20T06:19:14;12.20;;;5.70;;
21905;SDS011;11117;48.644;9.006;2022-12-20T06:21:40;12.90;;;5.83;;
21905;SDS011;11117;48.644;9.006;2022-12-20T06:24:06;12.77;;;5.40;;
21905;SDS011;11117;48.644;9.006;2022-12-20T06:26:31;9.57;;;5.53;;
21905;SDS011;11117;48.644;9.006;2022-12-20T06:28:58;11.03;;;5.10;;
21905;SDS011;11117;48.644;9.006;2022-12-20T06:31:24;10.27;;;6.13;;
21905;SDS011;11117;48.644;9.006;2022-12-20T06:33:49;10.57;;;5.60;;
21905;SDS011;11117;48.644;9.006;2022-12-20T06:36:15;9.97;;;5.50;;
21905;SDS011;11117;48.644;9.006;2022-12-20T06:38:40;11.50;;;6.63;;
21905;SDS011;11117;48.644;9.006;2022-12-20T06:41:06;12.47;;;5.70;;
21905;SDS011;11117;48.644;9.006;2022-12-20T06:43:31;10.53;;;5.57;;
21905;SDS011;11117;48.644;9.006;2022-12-20T06:45:57;11.03;;;5.50;;
21905;SDS011;11117;48.644;9.006;2022-12-20T06:48:22;9.77;;;5.27;;
21905;SDS011;11117;48.644;9.006;2022-12-20T06:50:48;9.23;;;5.47;;
21905;SDS011;11117;48.644;9.006;2022-12-20T06:53:14;10.43;;;5.57;;
21905;SDS011;11117;48.644;9.006;2022-12-20T06:55:39;10.33;;;6.10;;
21905;SDS011;11117;48.644;9.006;2022-12-20T06:58:05;10.23;;;6.00;;
21905;SDS011;11117;48.644;9.006;2022-12-20T07:00:31;8.73;;;5.33;;
21905;SDS011;11117;48.644;9.006;2022-12-20T07:02:56;10.43;;;5.27;;
21905;SDS011;11117;48.644;9.006;2022-12-20T07:05:22;10.07;;;5.00;;
21905;SDS011;11117;48.644;9.006;2022-12-20T07:07:48;10.00;;;5.27;;
21905;SDS011;11117;48.644;9.006;2022-12-20T07:10:13;9.57;;;5.20;;
21905;SDS011;11117;48.644;9.006;2022-12-20T07:12:39;10.63;;;6.80;;
21905;SDS011;11117;48.644;9.006;2022-12-20T07:15:05;11.77;;;5.83;;
21905;SDS011;11117;48.644;9.006;2022-12-20T07:17:31;11.87;;;5.60;;
21905;SDS011;11117;48.644;9.006;2022-12-20T07:19:56;13.13;;;5.40;;
21905;SDS011;11117;48.644;9.006;2022-12-20T07:22:22;9.10;;;5.40;;
21905;SDS011;11117;48.644;9.006;2022-12-20T07:24:47;10.63;;;5.53;;
21905;SDS011;11117;48.644;9.006;2022-12-20T07:27:13;8.93;;;5.10;;
21905;SDS011;11117;48.644;9.006;2022-12-20T07:29:38;9.07;;;4.90;;
21905;SDS011;11117;48.644;9.006;2022-12-20T07:32:04;8.93;;;5.10;;
21905;SDS011;11117;48.644;9.006;2022-12-20T07:34:30;8.90;;;4.87;;
21905;SDS011;11117;48.644;9.006;2022-12-20T07:36:56;9.20;;;5.00;;
21905;SDS011;11117;48.644;9.006;2022-12-20T07:39:22;7.50;;;4.97;;
21905;SDS011;11117;48.644;9.006;2022-12-20T07:41:47;9.83;;;4.93;;
21905;SDS011;11117;48.644;9.006;2022-12-20T07:44:13;9.07;;;5.10;;
21905;SDS011;11117;48.644;9.006;2022-12-20T07:46:38;11.50;;;5.23;;
21905;SDS011;11117;48.644;9.006;2022-12-20T07:49:04;8.43;;;5.03;;
21905;SDS011;11117;48.644;9.006;2022-12-20T07:51:30;9.33;;;5.23;;
21905;SDS011;11117;48.644;9.006;2022-12-20T07:54:01;10.23;;;4.97;;
21905;SDS011;11117;48.644;9.006;2022-12-20T07:56:36;11.77;;;5.33;;
21905;SDS011;11117;48.644;9.006;2022-12-20T07:59:05;10.47;;;5.27;;
21905;SDS011;11117;48.644;9.006;2022-12-20T08:01:31;10.03;;;5.50;;
21905;SDS011;11117;48.644;9.006;2022-12-20T08:03:59;8.40;;;5.23;;
21905;SDS011;11117;48.644;9.006;2022-12-20T08:06:29;8.63;;;5.00;;
21905;SDS011;11117;48.644;9.006;2022-12-20T08:08:56;9.97;;;4.77;;
21905;SDS011;11117;48.644;9.006;2022-12-20T08:11:24;10.50;;;5.20;;
21905;SDS011;11117;48.644;9.006;2022-12-20T08:13:51;8.60;;;5.50;;
21905;SDS011;11117;48.644;9.006;2022-12-20T08:16:17;11.43;;;6.27;;
21905;SDS011;11117;48.644;9.006;2022-12-20T08:18:42;10.27;;;6.03;;
21905;SDS011;11117;48.644;9.006;2022-12-20T08:21:08;12.90;;;6.30;;
21905;SDS011;11117;48.644;9.006;2022-12-20T08:23:33;8.80;;;5.57;;
21905;SDS011;11117;48.644;9.006;2022-12-20T08:25:59;7.13;;;4.80;;
21905;SDS011;11117;48.644;9.006;2022-12-20T08:28:25;10.30;;;4.93;;
21905;SDS011;11117;48.644;9.006;2022-12-20T08:30:51;8.77;;;5.10;;
21905;SDS011;11117;48.644;9.006;2022-12-20T08:33:17;8.53;;;5.03;;
21905;SDS011;11117;48.644;9.006;2022-12-20T08:35:42;9.13;;;4.90;;
21905;SDS011;11117;48.644;9.006;2022-12-20T08:38:08;7.43;;;4.40;;
21905;SDS011;11117;48.644;9.006;2022-12-20T08:40:33;7.67;;;4.80;;
21905;SDS011;11117;48.644;9.006;2022-12-20T08:42:59;8.50;;;4.70;;
21905;SDS011;11117;48.644;9.006;2022-12-20T08:45:24;8.17;;;4.47;;
21905;SDS011;11117;48.644;9.006;2022-12-20T08:47:50;10.40;;;4.90;;
21905;SDS011;11117;48.644;9.006;2022-12-20T08:50:17;11.07;;;5.20;;
21905;SDS011;11117;48.644;9.006;2022-12-20T08:52:42;9.33;;;5.00;;
21905;SDS011;11117;48.644;9.006;2022-12-20T08:55:08;9.03;;;4.67;;
21905;SDS011;11117;48.644;9.006;2022-12-20T08:57:34;8.80;;;4.70;;
21905;SDS011;11117;48.644;9.006;2022-12-20T08:59:59;7.57;;;4.47;;
21905;SDS011;11117;48.644;9.006;2022-12-20T09:02:25;8.47;;;4.70;;
21905;SDS011;11117;48.644;9.006;2022-12-20T09:04:50;7.57;;;4.30;;
21905;SDS011;11117;48.644;9.006;2022-12-20T09:07:16;5.97;;;4.17;;
21905;SDS011;11117;48.644;9.006;2022-12-20T09:09:41;8.27;;;4.50;;
21905;SDS011;11117;48.644;9.006;2022-12-20T09:12:07;6.40;;;4.03;;
21905;SDS011;11117;48.644;9.006;2022-12-20T09:14:33;6.47;;;4.60;;
21905;SDS011;11117;48.644;9.006;2022-12-20T09:16:58;6.60;;;4.63;;
21905;SDS011;11117;48.644;9.006;2022-12-20T09:19:24;9.07;;;4.40;;
21905;SDS011;11117;48.644;9.006;2022-12-20T09:21:49;6.20;;;4.17;;
21905;SDS011;11117;48.644;9.006;2022-12-20T09:24:15;9.00;;;4.40;;
21905;SDS011;11117;48.644;9.006;2022-12-20T09:26:40;7.87;;;4.33;;
21905;SDS011;11117;48.644;9.006;2022-12-20T09:29:06;7.43;;;4.73;;
21905;SDS011;11117;48.644;9.006;2022-12-20T09:31:31;7.77;;;4.70;;
21905;SDS011;11117;48.644;9.006;2022-12-20T09:33:58;7.30;;;4.43;;
21905;SDS011;11117;48.644;9.006;2022-12-20T09:36:24;6.07;;;4.30;;
21905;SDS011;11117;48.644;9.006;2022-12-20T09:38:51;9.50;;;4.80;;
21905;SDS011;11117;48.644;9.006;2022-12-20T09:43:52;9.33;;;4.33;;
21905;SDS011;11117;48.644;9.006;2022-12-20T09:46:18;7.87;;;4.43;;
21905;SDS011;11117;48.644;9.006;2022-12-20T09:48:43;6.93;;;4.30;;
21905;SDS011;11117;48.644;9.006;2022-12-20T10:00:10;7.23;;;4.67;;
21905;SDS011;11117;48.644;9.006;2022-12-20T10:02:40;6.30;;;3.73;;
21905;SDS011;11117;48.644;9.006;2022-12-20T10:05:08;8.50;;;4.33;;
21905;SDS011;11117;48.644;9.006;2022-12-20T10:08:01;6.37;;;3.87;;
21905;SDS011;11117;48.644;9.006;2022-12-20T10:10:45;7.53;;;4.17;;
21905;SDS011;11117;48.644;9.006;2022-12-20T10:13:30;6.57;;;4.00;;
21905;SDS011;11117;48.644;9.006;2022-12-20T10:19:39;8.67;;;4.10;;
21905;SDS011;11117;48.644;9.006;2022-12-20T10:25:50;6.50;;;4.10;;
21905;SDS011;11117;48.644;9.006;2022-12-20T10:28:54;8.37;;;4.30;;
21905;SDS011;11117;48.644;9.006;2022-12-20T10:32:14;8.60;;;4.23;;
21905;SDS011;11117;48.644;9.006;2022-12-20T10:38:07;9.63;;;4.43;;
21905;SDS011;11117;48.644;9.006;2022-12-20T10:40:40;6.87;;;4.40;;
21905;SDS011;11117;48.644;9.006;2022-12-20T10:43:19;8.57;;;5.07;;
21905;SDS011;11117;48.644;9.006;2022-12-20T10:48:34;8.67;;;4.83;;
21905;SDS011;11117;48.644;9.006;2022-12-20T10:53:32;10.20;;;4.83;;
21905;SDS011;11117;48.644;9.006;2022-12-20T10:56:11;11.23;;;5.30;;
21905;SDS011;11117;48.644;9.006;2022-12-20T10:58:41;9.50;;;5.00;;
21905;SDS011;11117;48.644;9.006;2022-12-20T11:01:17;17.70;;;7.07;;
21905;SDS011;11117;48.644;9.006;2022-12-20T11:09:20;9.70;;;6.13;;
21905;SDS011;11117;48.644;9.006;2022-12-20T11:12:11;11.13;;;6.90;;
21905;SDS011;11117;48.644;9.006;2022-12-20T11:14:38;7.90;;;4.80;;
21905;SDS011;11117;48.644;9.006;2022-12-20T11:28:13;5.80;;;3.53;;
21905;SDS011;11117;48.644;9.006;2022-12-20T11:30:53;5.47;;;3.50;;
21905;SDS011;11117;48.644;9.006;2022-12-20T11:36:36;7.77;;;3.60;;
21905;SDS011;11117;48.644;9.006;2022-12-20T11:53:30;4.97;;;3.20;;
21905;SDS011;11117;48.644;9.006;2022-12-20T11:56:08;6.13;;;3.50;;
21905;SDS011;11117;48.644;9.006;2022-12-20T11:58:55;4.87;;;3.20;;
21905;SDS011;11117;48.644;9.006;2022-12-20T12:01:28;6.43;;;3.70;;
21905;SDS011;11117;48.644;9.006;2022-12-20T12:07:02;5.93;;;3.73;;
21905;SDS011;11117;48.644;9.006;2022-12-20T12:12:10;6.60;;;4.30;;
21905;SDS011;11117;48.644;9.006;2022-12-20T12:15:10;18.17;;;9.90;;
21905;SDS011;11117;48.644;9.006;2022-12-20T12:20:22;10.23;;;6.20;;
21905;SDS011;11117;48.644;9.006;2022-12-20T12:22:59;14.83;;;7.57;;
21905;SDS011;11117;48.644;9.006;2022-12-20T12:25:31;12.97;;;7.47;;
21905;SDS011;11117;48.644;9.006;2022-12-20T12:27:57;8.63;;;5.50;;
21905;SDS011;11117;48.644;9.006;2022-12-20T12:30:24;10.50;;;4.83;;
21905;SDS011;11117;48.644;9.006;2022-12-20T12:32:58;8.53;;;4.13;;
21905;SDS011;11117;48.644;9.006;2022-12-20T12:38:46;6.57;;;3.97;;
21905;SDS011;11117;48.644;9.006;2022-12-20T12:44:27;5.70;;;3.60;;
21905;SDS011;11117;48.644;9.006;2022-12-20T12:46:58;7.30;;;4.13;;
21905;SDS011;11117;48.644;9.006;2022-12-20T12:49:30;8.00;;;4.67;;
21905;SDS011;11117;48.644;9.006;2022-12-20T12:52:00;8.53;;;4.47;;
21905;SDS011;11117;48.644;9.006;2022-12-20T12:57:27;6.50;;;4.13;;
21905;SDS011;11117;48.644;9.006;2022-12-20T12:59:46;8.00;;;3.93;;
21905;SDS011;11117;48.644;9.006;2022-12-20T13:07:43;7.27;;;4.60;;
21905;SDS011;11117;48.644;9.006;2022-12-20T13:18:00;5.73;;;3.90;;
21905;SDS011;11117;48.644;9.006;2022-12-20T13:21:15;9.00;;;3.90;;
21905;SDS011;11117;48.644;9.006;2022-12-20T13:23:41;8.97;;;4.40;;
21905;SDS011;11117;48.644;9.006;2022-12-20T13:26:40;28.93;;;11.40;;
21905;SDS011;11117;48.644;9.006;2022-12-20T13:29:25;32.03;;;12.73;;
21905;SDS011;11117;48.644;9.006;2022-12-20T13:32:00;33.77;;;15.83;;
21905;SDS011;11117;48.644;9.006;2022-12-20T13:37:25;8.87;;;5.50;;
21905;SDS011;11117;48.644;9.006;2022-12-20T13:40:47;9.07;;;5.10;;
21905;SDS011;11117;48.644;9.006;2022-12-20T13:45:45;6.57;;;3.90;;
21905;SDS011;11117;48.644;9.006;2022-12-20T13:48:17;6.40;;;3.63;;
21905;SDS011;11117;48.644;9.006;2022-12-20T13:50:54;7.53;;;3.80;;
21905;SDS011;11117;48.644;9.006;2022-12-20T13:53:25;7.13;;;3.90;;
21905;SDS011;11117;48.644;9.006;2022-12-20T13:55:54;7.87;;;3.83;;
21905;SDS011;11117;48.644;9.006;2022-12-20T13:58:26;12.47;;;4.00;;
21905;SDS011;11117;48.644;9.006;2022-12-20T14:01:03;6.47;;;4.00;;
21905;SDS011;11117;48.644;9.006;2022-12-20T14:03:31;9.30;;;4.20;;
21905;SDS011;11117;48.644;9.006;2022-12-20T14:06:00;8.30;;;4.40;;
21905;SDS011;11117;48.644;9.006;2022-12-20T14:08:29;6.93;;;3.90;;
21905;SDS011;11117;48.644;9.006;2022-12-20T14:11:14;7.47;;;3.67;;
21905;SDS011;11117;48.644;9.006;2022-12-20T14:13:50;6.23;;;4.17;;
21905;SDS011;11117;48.644;9.006;2022-12-20T14:16:27;9.40;;;5.10;;
21905;SDS011;11117;48.644;9.006;2022-12-20T14:21:22;9.63;;;5.10;;
21905;SDS011;11117;48.644;9.006;2022-12-20T14:23:50;7.67;;;5.00;;
21905;SDS011;11117;48.644;9.006;2022-12-20T14:26:36;11.87;;;6.90;;
21905;SDS011;11117;48.644;9.006;2022-12-20T14:29:09;10.27;;;5.30;;
21905;SDS011;11117;48.644;9.006;2022-12-20T14:31:40;6.53;;;3.80;;
21905;SDS011;11117;48.644;9.006;2022-12-20T14:36:33;7.57;;;4.07;;
21905;SDS011;11117;48.644;9.006;2022-12-20T14:38:58;6.20;;;3.43;;
21905;SDS011;11117;48.644;9.006;2022-12-20T14:44:02;8.83;;;4.43;;
21905;SDS011;11117;48.644;9.006;2022-12-20T14:46:40;7.73;;;4.30;;
21905;SDS011;11117;48.644;9.006;2022-12-20T14:49:29;9.10;;;4.40;;
21905;SDS011;11117;48.644;9.006;2022-12-20T14:54:46;6.90;;;4.30;;
21905;SDS011;11117;48.644;9.006;2022-12-20T14:57:26;7.47;;;4.07;;
21905;SDS011;11117;48.644;9.006;2022-12-20T14:59:56;6.60;;;3.93;;
21905;SDS011;11117;48.644;9.006;2022-12-20T15:02:35;9.03;;;3.87;;
21905;SDS011;11117;48.644;9.006;2022-12-20T15:08:12;7.90;;;3.53;;
21905;SDS011;11117;48.644;9.006;2022-12-20T15:10:47;7.43;;;3.70;;
21905;SDS011;11117;48.644;9.006;2022-12-20T15:13:27;9.23;;;3.57;;
21905;SDS011;11117;48.644;9.006;2022-12-20T15:15:58;6.90;;;3.53;;
21905;SDS011;11117;48.644;9.006;2022-12-20T15:18:25;9.20;;;3.37;;
21905;SDS011;11117;48.644;9.006;2022-12-20T15:20:59;5.37;;;3.37;;
21905;SDS011;11117;48.644;9.006;2022-12-20T15:23:31;6.67;;;3.90;;
21905;SDS011;11117;48.644;9.006;2022-12-20T15:25:58;6.13;;;3.80;;
21905;SDS011;11117;48.644;9.006;2022-12-20T15:28:24;6.57;;;3.83;;
21905;SDS011;11117;48.644;9.006;2022-12-20T15:30:51;6.80;;;3.80;;
21905;SDS011;11117;48.644;9.006;2022-12-20T15:33:19;5.93;;;3.50;;
21905;SDS011;11117;48.644;9.006;2022-12-20T15:35:50;7.50;;;3.73;;
21905;SDS011;11117;48.644;9.006;2022-12-20T15:38:17;8.60;;;3.93;;
21905;SDS011;11117;48.644;9.006;2022-12-20T15:40:49;6.30;;;3.87;;
21905;SDS011;11117;48.644;9.006;2022-12-20T15:43:18;9.83;;;4.10;;
21905;SDS011;11117;48.644;9.006;2022-12-20T15:45:46;6.87;;;3.53;;
21905;SDS011;11117;48.644;9.006;2022-12-20T15:48:16;6.63;;;3.77;;
21905;SDS011;11117;48.644;9.006;2022-12-20T15:50:44;6.27;;;3.70;;
21905;SDS011;11117;48.644;9.006;2022-12-20T15:53:15;7.30;;;4.20;;
21905;SDS011;11117;48.644;9.006;2022-12-20T15:55:42;9.07;;;4.17;;
21905;SDS011;11117;48.644;9.006;2022-12-20T15:58:08;7.57;;;4.40;;
21905;SDS011;11117;48.644;9.006;2022-12-20T16:00:36;7.73;;;4.27;;
21905;SDS011;11117;48.644;9.006;2022-12-20T16:03:04;9.40;;;4.67;;
21905;SDS011;11117;48.644;9.006;2022-12-20T16:05:31;11.00;;;6.00;;
21905;SDS011;11117;48.644;9.006;2022-12-20T16:07:56;15.17;;;6.33;;
21905;SDS011;11117;48.644;9.006;2022-12-20T16:10:22;8.30;;;4.97;;
21905;SDS011;11117;48.644;9.006;2022-12-20T16:12:47;13.93;;;4.67;;
21905;SDS011;11117;48.644;9.006;2022-12-20T16:15:18;7.53;;;4.00;;
21905;SDS011;11117;48.644;9.006;2022-12-20T16:17:45;6.17;;;3.60;;
21905;SDS011;11117;48.644;9.006;2022-12-20T16:20:11;8.20;;;4.00;;
21905;SDS011;11117;48.644;9.006;2022-12-20T16:22:36;8.30;;;5.17;;
21905;SDS011;11117;48.644;9.006;2022-12-20T16:25:02;8.97;;;5.53;;
21905;SDS011;11117;48.644;9.006;2022-12-20T16:27:28;10.50;;;6.00;;
21905;SDS011;11117;48.644;9.006;2022-12-20T16:29:54;9.03;;;4.90;;
21905;SDS011;11117;48.644;9.006;2022-12-20T16:32:20;6.63;;;4.10;;
21905;SDS011;11117;48.644;9.006;2022-12-20T16:34:46;7.23;;;3.70;;
21905;SDS011;11117;48.644;9.006;2022-12-20T16:37:13;6.00;;;3.37;;
21905;SDS011;11117;48.644;9.006;2022-12-20T16:39:39;8.80;;;3.70;;
21905;SDS011;11117;48.644;9.006;2022-12-20T16:42:10;6.37;;;3.90;;
21905;SDS011;11117;48.644;9.006;2022-12-20T16:44:40;6.60;;;4.07;;
21905;SDS011;11117;48.644;9.006;2022-12-20T16:47:06;7.93;;;4.30;;
21905;SDS011;11117;48.644;9.006;2022-12-20T16:49:33;7.00;;;4.20;;
21905;SDS011;11117;48.644;9.006;2022-12-20T16:51:58;8.53;;;4.00;;
21905;SDS011;11117;48.644;9.006;2022-12-20T16:54:24;6.77;;;4.20;;
21905;SDS011;11117;48.644;9.006;2022-12-20T16:56:50;9.50;;;3.90;;
21905;SDS011;11117;48.644;9.006;2022-12-20T16:59:16;9.53;;;4.57;;
21905;SDS011;11117;48.644;9.006;2022-12-20T17:01:42;7.50;;;4.00;;
21905;SDS011;11117;48.644;9.006;2022-12-20T17:04:14;8.37;;;4.27;;